sensor_id;sensor_type;location;lat;lon;timestamp;temperature;humidity
49861;DHT22;35761;48.826;9.238;2023-02-21T00:01:45;8.20;30.40
49861;DHT22;35761;48.826;9.238;2023-02-21T00:04:32;8.20;30.30
49861;DHT22;35761;48.826;9.238;2023-02-21T00:07:19;8.10;30.70
49861;DHT22;35761;48.826;9.238;2023-02-21T00:10:06;8.10;30.80
49861;DHT22;35761;48.826;9.238;2023-02-21T00:12:52;8.00;30.90
49861;DHT22;35761;48.826;9.238;2023-02-21T00:15:38;8.00;30.90
49861;DHT22;35761;48.826;9.238;2023-02-21T00:18:24;8.00;30.90
49861;DHT22;35761;48.826;9.238;2023-02-21T00:21:11;7.90;31.30
49861;DHT22;35761;48.826;9.238;2023-02-21T00:23:57;7.80;31.40
49861;DHT22;35761;48.826;9.238;2023-02-21T00:26:42;7.80;31.60
49861;DHT22;35761;48.826;9.238;2023-02-21T00:29:28;7.80;31.80
49861;DHT22;35761;48.826;9.238;2023-02-21T00:32:14;7.70;32.10
49861;DHT22;35761;48.826;9.238;2023-02-21T00:35:01;7.60;32.50
49861;DHT22;35761;48.826;9.238;2023-02-21T00:37:49;7.60;32.90
49861;DHT22;35761;48.826;9.238;2023-02-21T00:40:36;7.60;32.90
49861;DHT22;35761;48.826;9.238;2023-02-21T00:43:27;7.60;33.50
49861;DHT22;35761;48.826;9.238;2023-02-21T00:46:13;7.50;33.20
49861;DHT22;35761;48.826;9.238;2023-02-21T00:48:59;7.50;33.40
49861;DHT22;35761;48.826;9.238;2023-02-21T00:51:46;7.50;33.40
49861;DHT22;35761;48.826;9.238;2023-02-21T00:54:33;7.40;33.60
49861;DHT22;35761;48.826;9.238;2023-02-21T00:57:20;7.40;33.80
49861;DHT22;35761;48.826;9.238;2023-02-21T01:00:08;7.40;34.30
49861;DHT22;35761;48.826;9.238;2023-02-21T01:02:58;7.40;33.70
49861;DHT22;35761;48.826;9.238;2023-02-21T01:05:45;7.40;33.50
49861;DHT22;35761;48.826;9.238;2023-02-21T01:08:31;7.40;33.60
49861;DHT22;35761;48.826;9.238;2023-02-21T01:11:19;7.30;33.90
49861;DHT22;35761;48.826;9.238;2023-02-21T01:14:06;7.30;33.90
49861;DHT22;35761;48.826;9.238;2023-02-21T01:16:54;7.30;34.00
49861;DHT22;35761;48.826;9.238;2023-02-21T01:19:41;7.20;34.10
49861;DHT22;35761;48.826;9.238;2023-02-21T01:22:27;7.20;34.20
49861;DHT22;35761;48.826;9.238;2023-02-21T01:25:16;7.10;34.30
49861;DHT22;35761;48.826;9.238;2023-02-21T01:28:03;7.10;34.10
49861;DHT22;35761;48.826;9.238;2023-02-21T01:30:49;7.20;34.10
49861;DHT22;35761;48.826;9.238;2023-02-21T01:33:37;7.20;34.10
49861;DHT22;35761;48.826;9.238;2023-02-21T01:36:25;7.20;34.00
49861;DHT22;35761;48.826;9.238;2023-02-21T01:39:11;7.10;33.80
49861;DHT22;35761;48.826;9.238;2023-02-21T01:41:59;7.10;33.90
49861;DHT22;35761;48.826;9.238;2023-02-21T01:44:48;7.20;33.80
49861;DHT22;35761;48.826;9.238;2023-02-21T01:47:34;7.10;33.60
49861;DHT22;35761;48.826;9.238;2023-02-21T01:50:22;7.10;33.70
49861;DHT22;35761;48.826;9.238;2023-02-21T01:53:13;7.10;33.80
49861;DHT22;35761;48.826;9.238;2023-02-21T01:56:04;7.10;33.90
49861;DHT22;35761;48.826;9.238;2023-02-21T01:58:53;7.10;33.80
49861;DHT22;35761;48.826;9.238;2023-02-21T02:01:46;7.00;34.10
49861;DHT22;35761;48.826;9.238;2023-02-21T02:04:37;7.00;34.10
49861;DHT22;35761;48.826;9.238;2023-02-21T02:07:23;7.00;34.20
49861;DHT22;35761;48.826;9.238;2023-02-21T02:10:11;7.00;34.30
49861;DHT22;35761;48.826;9.238;2023-02-21T02:13:18;6.90;34.50
49861;DHT22;35761;48.826;9.238;2023-02-21T02:16:03;6.90;34.70
49861;DHT22;35761;48.826;9.238;2023-02-21T02:18:49;6.90;34.90
49861;DHT22;35761;48.826;9.238;2023-02-21T02:21:44;6.80;35.00
49861;DHT22;35761;48.826;9.238;2023-02-21T02:27:53;6.80;35.00
49861;DHT22;35761;48.826;9.238;2023-02-21T02:31:04;6.80;35.00
49861;DHT22;35761;48.826;9.238;2023-02-21T02:34:32;6.70;35.20
49861;DHT22;35761;48.826;9.238;2023-02-21T02:37:11;6.70;35.20
49861;DHT22;35761;48.826;9.238;2023-02-21T02:39:49;6.70;35.40
49861;DHT22;35761;48.826;9.238;2023-02-21T02:42:30;6.70;35.40
49861;DHT22;35761;48.826;9.238;2023-02-21T02:45:09;6.60;35.60
49861;DHT22;35761;48.826;9.238;2023-02-21T02:47:43;6.60;35.60
49861;DHT22;35761;48.826;9.238;2023-02-21T02:50:15;6.60;35.50
49861;DHT22;35761;48.826;9.238;2023-02-21T02:52:51;6.60;35.60
49861;DHT22;35761;48.826;9.238;2023-02-21T02:55:31;6.60;35.70
49861;DHT22;35761;48.826;9.238;2023-02-21T02:58:04;6.50;36.00
49861;DHT22;35761;48.826;9.238;2023-02-21T03:00:34;6.40;36.20
49861;DHT22;35761;48.826;9.238;2023-02-21T03:03:22;6.40;36.40
49861;DHT22;35761;48.826;9.238;2023-02-21T03:06:10;6.30;36.50
49861;DHT22;35761;48.826;9.238;2023-02-21T03:08:50;6.30;36.70
49861;DHT22;35761;48.826;9.238;2023-02-21T03:11:23;6.30;36.60
49861;DHT22;35761;48.826;9.238;2023-02-21T03:13:55;6.20;36.60
49861;DHT22;35761;48.826;9.238;2023-02-21T03:16:30;6.20;36.70
49861;DHT22;35761;48.826;9.238;2023-02-21T03:19:03;6.20;36.60
49861;DHT22;35761;48.826;9.238;2023-02-21T03:21:39;6.20;36.40
49861;DHT22;35761;48.826;9.238;2023-02-21T03:24:10;6.20;36.40
49861;DHT22;35761;48.826;9.238;2023-02-21T03:26:44;6.20;36.50
49861;DHT22;35761;48.826;9.238;2023-02-21T03:29:44;6.10;36.60
49861;DHT22;35761;48.826;9.238;2023-02-21T03:32:17;6.00;36.90
49861;DHT22;35761;48.826;9.238;2023-02-21T03:34:48;6.00;37.10
49861;DHT22;35761;48.826;9.238;2023-02-21T03:37:21;5.90;37.50
49861;DHT22;35761;48.826;9.238;2023-02-21T03:39:57;5.90;37.80
49861;DHT22;35761;48.826;9.238;2023-02-21T03:42:27;5.80;38.00
49861;DHT22;35761;48.826;9.238;2023-02-21T03:44:56;5.80;38.20
49861;DHT22;35761;48.826;9.238;2023-02-21T03:47:25;5.70;39.00
49861;DHT22;35761;48.826;9.238;2023-02-21T03:49:54;5.40;39.80
49861;DHT22;35761;48.826;9.238;2023-02-21T03:52:24;5.70;38.60
49861;DHT22;35761;48.826;9.238;2023-02-21T03:54:52;5.60;41.80
49861;DHT22;35761;48.826;9.238;2023-02-21T03:57:23;5.70;40.00
49861;DHT22;35761;48.826;9.238;2023-02-21T03:59:52;5.50;38.50
49861;DHT22;35761;48.826;9.238;2023-02-21T04:02:21;5.50;39.10
49861;DHT22;35761;48.826;9.238;2023-02-21T04:04:49;5.40;39.20
49861;DHT22;35761;48.826;9.238;2023-02-21T04:07:21;5.40;39.20
49861;DHT22;35761;48.826;9.238;2023-02-21T04:09:51;5.40;39.40
49861;DHT22;35761;48.826;9.238;2023-02-21T04:12:28;5.40;39.40
49861;DHT22;35761;48.826;9.238;2023-02-21T04:14:56;5.50;39.50
49861;DHT22;35761;48.826;9.238;2023-02-21T04:17:25;5.40;39.40
49861;DHT22;35761;48.826;9.238;2023-02-21T04:19:55;5.40;39.60
49861;DHT22;35761;48.826;9.238;2023-02-21T04:22:24;5.20;39.70
49861;DHT22;35761;48.826;9.238;2023-02-21T04:24:53;5.30;40.10
49861;DHT22;35761;48.826;9.238;2023-02-21T04:27:23;5.20;40.10
49861;DHT22;35761;48.826;9.238;2023-02-21T04:29:55;5.10;40.00
49861;DHT22;35761;48.826;9.238;2023-02-21T04:32:23;5.10;40.70
49861;DHT22;35761;48.826;9.238;2023-02-21T04:34:52;5.10;40.30
49861;DHT22;35761;48.826;9.238;2023-02-21T04:37:21;5.10;40.90
49861;DHT22;35761;48.826;9.238;2023-02-21T04:39:49;5.10;40.70
49861;DHT22;35761;48.826;9.238;2023-02-21T04:42:19;5.10;41.30
49861;DHT22;35761;48.826;9.238;2023-02-21T04:44:47;5.10;41.20
49861;DHT22;35761;48.826;9.238;2023-02-21T04:47:26;5.10;41.70
49861;DHT22;35761;48.826;9.238;2023-02-21T04:49:55;5.10;41.50
49861;DHT22;35761;48.826;9.238;2023-02-21T04:52:23;5.00;41.50
49861;DHT22;35761;48.826;9.238;2023-02-21T04:54:52;5.00;41.60
49861;DHT22;35761;48.826;9.238;2023-02-21T04:57:22;5.00;42.20
49861;DHT22;35761;48.826;9.238;2023-02-21T04:59:55;4.90;42.80
49861;DHT22;35761;48.826;9.238;2023-02-21T05:02:24;4.80;41.80
49861;DHT22;35761;48.826;9.238;2023-02-21T05:04:53;4.80;42.60
49861;DHT22;35761;48.826;9.238;2023-02-21T05:07:22;4.70;43.00
49861;DHT22;35761;48.826;9.238;2023-02-21T05:09:51;4.60;43.40
49861;DHT22;35761;48.826;9.238;2023-02-21T05:12:20;4.50;43.70
49861;DHT22;35761;48.826;9.238;2023-02-21T05:14:49;4.50;43.50
49861;DHT22;35761;48.826;9.238;2023-02-21T05:17:17;4.40;44.30
49861;DHT22;35761;48.826;9.238;2023-02-21T05:19:46;4.50;44.90
49861;DHT22;35761;48.826;9.238;2023-02-21T05:22:14;4.30;48.50
49861;DHT22;35761;48.826;9.238;2023-02-21T05:24:46;4.40;46.40
49861;DHT22;35761;48.826;9.238;2023-02-21T05:27:16;4.40;50.00
49861;DHT22;35761;48.826;9.238;2023-02-21T05:29:47;4.30;44.50
49861;DHT22;35761;48.826;9.238;2023-02-21T05:32:19;4.20;44.70
49861;DHT22;35761;48.826;9.238;2023-02-21T05:34:48;4.30;45.30
49861;DHT22;35761;48.826;9.238;2023-02-21T05:37:17;4.20;45.30
49861;DHT22;35761;48.826;9.238;2023-02-21T05:39:47;4.20;45.40
49861;DHT22;35761;48.826;9.238;2023-02-21T05:42:15;4.20;45.30
49861;DHT22;35761;48.826;9.238;2023-02-21T05:44:44;4.20;45.30
49861;DHT22;35761;48.826;9.238;2023-02-21T05:47:14;4.20;45.30
49861;DHT22;35761;48.826;9.238;2023-02-21T05:49:43;4.20;45.40
49861;DHT22;35761;48.826;9.238;2023-02-21T05:52:13;4.10;45.60
49861;DHT22;35761;48.826;9.238;2023-02-21T05:54:42;4.10;45.80
49861;DHT22;35761;48.826;9.238;2023-02-21T05:57:11;4.00;45.90
49861;DHT22;35761;48.826;9.238;2023-02-21T05:59:39;4.00;45.80
49861;DHT22;35761;48.826;9.238;2023-02-21T06:02:08;4.00;45.90
49861;DHT22;35761;48.826;9.238;2023-02-21T06:04:37;3.90;46.30
49861;DHT22;35761;48.826;9.238;2023-02-21T06:07:06;3.90;46.50
49861;DHT22;35761;48.826;9.238;2023-02-21T06:09:36;3.80;46.50
49861;DHT22;35761;48.826;9.238;2023-02-21T06:12:05;3.90;46.50
49861;DHT22;35761;48.826;9.238;2023-02-21T06:14:33;3.90;46.70
49861;DHT22;35761;48.826;9.238;2023-02-21T06:17:02;3.90;46.70
49861;DHT22;35761;48.826;9.238;2023-02-21T06:19:30;3.90;46.80
49861;DHT22;35761;48.826;9.238;2023-02-21T06:22:00;3.80;46.70
49861;DHT22;35761;48.826;9.238;2023-02-21T06:24:29;3.80;46.70
49861;DHT22;35761;48.826;9.238;2023-02-21T06:26:57;3.80;46.80
49861;DHT22;35761;48.826;9.238;2023-02-21T06:29:25;3.80;46.80
49861;DHT22;35761;48.826;9.238;2023-02-21T06:31:55;3.80;46.60
49861;DHT22;35761;48.826;9.238;2023-02-21T06:34:25;3.90;46.60
49861;DHT22;35761;48.826;9.238;2023-02-21T06:36:54;4.00;46.00
49861;DHT22;35761;48.826;9.238;2023-02-21T06:39:24;4.00;45.50
49861;DHT22;35761;48.826;9.238;2023-02-21T06:41:52;4.00;45.60
49861;DHT22;35761;48.826;9.238;2023-02-21T06:44:20;4.00;45.70
49861;DHT22;35761;48.826;9.238;2023-02-21T06:46:49;4.00;45.80
49861;DHT22;35761;48.826;9.238;2023-02-21T06:49:17;4.10;46.70
49861;DHT22;35761;48.826;9.238;2023-02-21T06:51:45;4.10;46.50
49861;DHT22;35761;48.826;9.238;2023-02-21T06:54:14;4.00;46.10
49861;DHT22;35761;48.826;9.238;2023-02-21T06:56:45;4.00;46.10
49861;DHT22;35761;48.826;9.238;2023-02-21T06:59:13;4.00;46.30
49861;DHT22;35761;48.826;9.238;2023-02-21T07:01:42;4.00;46.40
49861;DHT22;35761;48.826;9.238;2023-02-21T07:04:11;3.90;46.50
49861;DHT22;35761;48.826;9.238;2023-02-21T07:06:39;3.90;46.30
49861;DHT22;35761;48.826;9.238;2023-02-21T07:09:07;3.90;46.40
49861;DHT22;35761;48.826;9.238;2023-02-21T07:11:35;3.90;46.80
49861;DHT22;35761;48.826;9.238;2023-02-21T07:14:05;3.80;46.80
49861;DHT22;35761;48.826;9.238;2023-02-21T07:16:34;3.90;47.00
49861;DHT22;35761;48.826;9.238;2023-02-21T07:19:02;3.90;47.20
49861;DHT22;35761;48.826;9.238;2023-02-21T07:21:30;3.80;47.40
49861;DHT22;35761;48.826;9.238;2023-02-21T07:23:59;3.80;47.70
49861;DHT22;35761;48.826;9.238;2023-02-21T07:26:27;3.80;47.90
49861;DHT22;35761;48.826;9.238;2023-02-21T07:28:56;3.80;48.10
49861;DHT22;35761;48.826;9.238;2023-02-21T07:31:25;3.80;48.10
49861;DHT22;35761;48.826;9.238;2023-02-21T07:33:54;3.80;47.90
49861;DHT22;35761;48.826;9.238;2023-02-21T07:36:22;3.80;48.30
49861;DHT22;35761;48.826;9.238;2023-02-21T07:38:50;3.90;48.30
49861;DHT22;35761;48.826;9.238;2023-02-21T07:41:19;3.80;47.90
49861;DHT22;35761;48.826;9.238;2023-02-21T07:43:47;3.90;47.90
49861;DHT22;35761;48.826;9.238;2023-02-21T07:46:17;3.90;49.00
49861;DHT22;35761;48.826;9.238;2023-02-21T07:48:47;3.90;48.00
49861;DHT22;35761;48.826;9.238;2023-02-21T07:51:15;3.90;48.10
49861;DHT22;35761;48.826;9.238;2023-02-21T07:53:44;4.00;48.50
49861;DHT22;35761;48.826;9.238;2023-02-21T07:56:13;4.00;47.90
49861;DHT22;35761;48.826;9.238;2023-02-21T07:58:41;4.10;48.00
49861;DHT22;35761;48.826;9.238;2023-02-21T08:01:10;4.10;47.80
49861;DHT22;35761;48.826;9.238;2023-02-21T08:03:38;4.10;48.00
49861;DHT22;35761;48.826;9.238;2023-02-21T08:06:09;4.20;47.70
49861;DHT22;35761;48.826;9.238;2023-02-21T08:08:37;4.20;48.00
49861;DHT22;35761;48.826;9.238;2023-02-21T08:11:06;4.20;47.90
49861;DHT22;35761;48.826;9.238;2023-02-21T08:13:34;4.30;48.10
49861;DHT22;35761;48.826;9.238;2023-02-21T08:16:03;4.40;48.50
49861;DHT22;35761;48.826;9.238;2023-02-21T08:18:32;4.40;47.50
49861;DHT22;35761;48.826;9.238;2023-02-21T08:21:00;4.40;47.40
49861;DHT22;35761;48.826;9.238;2023-02-21T08:23:30;4.50;47.70
49861;DHT22;35761;48.826;9.238;2023-02-21T08:25:59;4.60;48.20
49861;DHT22;35761;48.826;9.238;2023-02-21T08:28:27;4.60;47.80
49861;DHT22;35761;48.826;9.238;2023-02-21T08:30:55;4.70;48.20
49861;DHT22;35761;48.826;9.238;2023-02-21T08:33:24;4.70;48.30
49861;DHT22;35761;48.826;9.238;2023-02-21T08:35:52;4.70;48.30
49861;DHT22;35761;48.826;9.238;2023-02-21T08:38:21;4.80;48.50
49861;DHT22;35761;48.826;9.238;2023-02-21T08:40:51;4.80;49.10
49861;DHT22;35761;48.826;9.238;2023-02-21T08:43:23;4.90;50.30
49861;DHT22;35761;48.826;9.238;2023-02-21T08:45:52;4.90;50.90
49861;DHT22;35761;48.826;9.238;2023-02-21T08:48:20;5.00;51.00
49861;DHT22;35761;48.826;9.238;2023-02-21T08:50:48;5.00;51.40
49861;DHT22;35761;48.826;9.238;2023-02-21T08:53:18;5.10;51.70
49861;DHT22;35761;48.826;9.238;2023-02-21T08:55:46;5.20;52.20
49861;DHT22;35761;48.826;9.238;2023-02-21T08:58:16;5.20;52.70
49861;DHT22;35761;48.826;9.238;2023-02-21T09:00:44;5.30;52.50
49861;DHT22;35761;48.826;9.238;2023-02-21T09:03:12;5.40;53.10
49861;DHT22;35761;48.826;9.238;2023-02-21T09:05:41;5.40;53.00
49861;DHT22;35761;48.826;9.238;2023-02-21T09:08:09;5.50;51.80
49861;DHT22;35761;48.826;9.238;2023-02-21T09:10:39;5.60;50.90
49861;DHT22;35761;48.826;9.238;2023-02-21T09:13:17;5.70;50.80
49861;DHT22;35761;48.826;9.238;2023-02-21T09:15:46;5.80;49.80
49861;DHT22;35761;48.826;9.238;2023-02-21T09:18:15;5.80;48.50
49861;DHT22;35761;48.826;9.238;2023-02-21T09:20:44;5.90;48.50
49861;DHT22;35761;48.826;9.238;2023-02-21T09:23:18;6.00;47.30
49861;DHT22;35761;48.826;9.238;2023-02-21T09:25:47;6.10;47.70
49861;DHT22;35761;48.826;9.238;2023-02-21T09:28:18;6.10;48.10
49861;DHT22;35761;48.826;9.238;2023-02-21T09:30:47;6.20;48.20
49861;DHT22;35761;48.826;9.238;2023-02-21T09:33:16;6.30;46.50
49861;DHT22;35761;48.826;9.238;2023-02-21T09:35:45;6.30;47.20
49861;DHT22;35761;48.826;9.238;2023-02-21T09:38:13;6.40;46.80
49861;DHT22;35761;48.826;9.238;2023-02-21T09:40:45;6.50;45.50
49861;DHT22;35761;48.826;9.238;2023-02-21T09:43:20;6.60;45.50
49861;DHT22;35761;48.826;9.238;2023-02-21T09:45:52;6.70;44.70
49861;DHT22;35761;48.826;9.238;2023-02-21T09:48:23;6.70;44.90
49861;DHT22;35761;48.826;9.238;2023-02-21T09:50:55;6.80;45.20
49861;DHT22;35761;48.826;9.238;2023-02-21T09:53:27;6.80;44.30
49861;DHT22;35761;48.826;9.238;2023-02-21T09:56:00;6.90;44.50
49861;DHT22;35761;48.826;9.238;2023-02-21T09:58:34;7.10;44.10
49861;DHT22;35761;48.826;9.238;2023-02-21T10:01:11;7.20;43.60
49861;DHT22;35761;48.826;9.238;2023-02-21T10:03:49;7.30;43.20
49861;DHT22;35761;48.826;9.238;2023-02-21T10:06:31;7.30;43.70
49861;DHT22;35761;48.826;9.238;2023-02-21T10:09:07;7.40;44.20
49861;DHT22;35761;48.826;9.238;2023-02-21T10:11:58;7.40;44.40
49861;DHT22;35761;48.826;9.238;2023-02-21T10:14:42;7.50;43.60
49861;DHT22;35761;48.826;9.238;2023-02-21T10:17:22;7.60;43.90
49861;DHT22;35761;48.826;9.238;2023-02-21T10:19:55;7.70;43.00
49861;DHT22;35761;48.826;9.238;2023-02-21T10:22:32;7.70;42.20
49861;DHT22;35761;48.826;9.238;2023-02-21T10:25:18;7.80;40.80
49861;DHT22;35761;48.826;9.238;2023-02-21T10:27:51;7.80;41.60
49861;DHT22;35761;48.826;9.238;2023-02-21T10:30:26;8.00;41.80
49861;DHT22;35761;48.826;9.238;2023-02-21T10:32:57;8.00;41.40
49861;DHT22;35761;48.826;9.238;2023-02-21T10:35:26;8.00;40.90
49861;DHT22;35761;48.826;9.238;2023-02-21T10:37:56;8.10;40.10
49861;DHT22;35761;48.826;9.238;2023-02-21T10:40:31;8.10;40.10
49861;DHT22;35761;48.826;9.238;2023-02-21T10:43:06;8.20;40.70
49861;DHT22;35761;48.826;9.238;2023-02-21T10:45:40;8.40;40.80
49861;DHT22;35761;48.826;9.238;2023-02-21T10:48:13;8.50;40.90
49861;DHT22;35761;48.826;9.238;2023-02-21T10:50:48;8.50;40.50
49861;DHT22;35761;48.826;9.238;2023-02-21T10:53:24;8.60;40.50
49861;DHT22;35761;48.826;9.238;2023-02-21T10:56:08;8.80;38.50
49861;DHT22;35761;48.826;9.238;2023-02-21T10:58:47;8.80;38.10
49861;DHT22;35761;48.826;9.238;2023-02-21T11:01:20;8.90;38.70
49861;DHT22;35761;48.826;9.238;2023-02-21T11:03:53;8.90;39.00
49861;DHT22;35761;48.826;9.238;2023-02-21T11:06:30;9.00;38.90
49861;DHT22;35761;48.826;9.238;2023-02-21T11:09:01;9.00;38.60
49861;DHT22;35761;48.826;9.238;2023-02-21T11:11:32;9.10;39.30
49861;DHT22;35761;48.826;9.238;2023-02-21T11:14:20;9.20;38.10
49861;DHT22;35761;48.826;9.238;2023-02-21T11:17:13;9.30;37.40
49861;DHT22;35761;48.826;9.238;2023-02-21T11:19:49;9.40;35.60
49861;DHT22;35761;48.826;9.238;2023-02-21T11:22:34;9.50;36.10
49861;DHT22;35761;48.826;9.238;2023-02-21T11:25:11;9.60;37.00
49861;DHT22;35761;48.826;9.238;2023-02-21T11:27:58;9.70;35.70
49861;DHT22;35761;48.826;9.238;2023-02-21T11:30:31;9.70;36.00
49861;DHT22;35761;48.826;9.238;2023-02-21T11:33:05;9.70;35.50
49861;DHT22;35761;48.826;9.238;2023-02-21T11:35:37;9.80;35.60
49861;DHT22;35761;48.826;9.238;2023-02-21T11:38:29;9.80;34.90
49861;DHT22;35761;48.826;9.238;2023-02-21T11:41:02;9.90;34.60
49861;DHT22;35761;48.826;9.238;2023-02-21T11:43:32;10.10;35.10
49861;DHT22;35761;48.826;9.238;2023-02-21T11:46:09;10.30;35.10
49861;DHT22;35761;48.826;9.238;2023-02-21T11:48:51;10.60;32.40
49861;DHT22;35761;48.826;9.238;2023-02-21T11:51:43;10.90;34.00
49861;DHT22;35761;48.826;9.238;2023-02-21T11:54:14;11.20;33.70
49861;DHT22;35761;48.826;9.238;2023-02-21T11:56:50;11.40;32.50
49861;DHT22;35761;48.826;9.238;2023-02-21T11:59:28;11.70;30.80
49861;DHT22;35761;48.826;9.238;2023-02-21T12:02:16;12.00;29.70
49861;DHT22;35761;48.826;9.238;2023-02-21T12:05:08;12.20;29.30
49861;DHT22;35761;48.826;9.238;2023-02-21T12:07:48;12.40;29.50
49861;DHT22;35761;48.826;9.238;2023-02-21T12:10:32;12.60;29.00
49861;DHT22;35761;48.826;9.238;2023-02-21T12:13:19;12.90;28.90
49861;DHT22;35761;48.826;9.238;2023-02-21T12:15:58;13.10;32.40
49861;DHT22;35761;48.826;9.238;2023-02-21T12:18:43;13.20;30.80
49861;DHT22;35761;48.826;9.238;2023-02-21T12:21:48;13.30;29.20
49861;DHT22;35761;48.826;9.238;2023-02-21T12:24:34;13.40;27.60
49861;DHT22;35761;48.826;9.238;2023-02-21T12:27:16;13.60;28.20
49861;DHT22;35761;48.826;9.238;2023-02-21T12:30:01;13.80;26.40
49861;DHT22;35761;48.826;9.238;2023-02-21T12:32:49;13.90;25.40
49861;DHT22;35761;48.826;9.238;2023-02-21T12:35:56;14.10;25.10
49861;DHT22;35761;48.826;9.238;2023-02-21T12:38:45;14.20;25.90
49861;DHT22;35761;48.826;9.238;2023-02-21T12:41:41;14.50;25.60
49861;DHT22;35761;48.826;9.238;2023-02-21T12:44:19;14.80;24.30
49861;DHT22;35761;48.826;9.238;2023-02-21T12:46:53;14.90;25.20
49861;DHT22;35761;48.826;9.238;2023-02-21T12:49:28;15.10;23.60
49861;DHT22;35761;48.826;9.238;2023-02-21T12:52:14;15.40;22.80
49861;DHT22;35761;48.826;9.238;2023-02-21T12:54:53;15.50;22.70
49861;DHT22;35761;48.826;9.238;2023-02-21T12:57:29;15.70;21.70
49861;DHT22;35761;48.826;9.238;2023-02-21T13:00:10;15.90;22.10
49861;DHT22;35761;48.826;9.238;2023-02-21T13:02:52;16.00;22.10
49861;DHT22;35761;48.826;9.238;2023-02-21T13:05:32;16.30;21.10
49861;DHT22;35761;48.826;9.238;2023-02-21T13:08:12;16.40;20.10
49861;DHT22;35761;48.826;9.238;2023-02-21T13:10:54;16.60;20.20
49861;DHT22;35761;48.826;9.238;2023-02-21T13:13:28;16.70;20.10
49861;DHT22;35761;48.826;9.238;2023-02-21T13:16:01;16.90;20.00
49861;DHT22;35761;48.826;9.238;2023-02-21T13:18:33;17.10;19.20
49861;DHT22;35761;48.826;9.238;2023-02-21T13:21:12;17.40;18.70
49861;DHT22;35761;48.826;9.238;2023-02-21T13:23:50;17.50;18.20
49861;DHT22;35761;48.826;9.238;2023-02-21T13:27:25;17.80;18.50
49861;DHT22;35761;48.826;9.238;2023-02-21T13:30:02;17.90;17.80
49861;DHT22;35761;48.826;9.238;2023-02-21T13:32:39;18.20;17.10
49861;DHT22;35761;48.826;9.238;2023-02-21T13:35:21;18.30;17.50
49861;DHT22;35761;48.826;9.238;2023-02-21T13:37:54;18.50;16.80
49861;DHT22;35761;48.826;9.238;2023-02-21T13:40:25;18.70;17.20
49861;DHT22;35761;48.826;9.238;2023-02-21T13:43:05;18.90;15.60
49861;DHT22;35761;48.826;9.238;2023-02-21T13:45:38;19.10;14.70
49861;DHT22;35761;48.826;9.238;2023-02-21T13:48:22;19.50;14.50
49861;DHT22;35761;48.826;9.238;2023-02-21T13:50:54;19.90;15.50
49861;DHT22;35761;48.826;9.238;2023-02-21T13:53:24;20.10;14.40
49861;DHT22;35761;48.826;9.238;2023-02-21T13:56:16;20.50;14.10
49861;DHT22;35761;48.826;9.238;2023-02-21T13:58:48;20.80;13.70
49861;DHT22;35761;48.826;9.238;2023-02-21T14:01:40;21.00;13.50
49861;DHT22;35761;48.826;9.238;2023-02-21T14:04:56;21.20;13.20
49861;DHT22;35761;48.826;9.238;2023-02-21T14:07:40;21.50;12.40
49861;DHT22;35761;48.826;9.238;2023-02-21T14:10:26;21.70;11.90
49861;DHT22;35761;48.826;9.238;2023-02-21T14:13:02;21.90;11.90
49861;DHT22;35761;48.826;9.238;2023-02-21T14:15:42;22.00;11.60
49861;DHT22;35761;48.826;9.238;2023-02-21T14:18:21;22.20;11.50
49861;DHT22;35761;48.826;9.238;2023-02-21T14:20:54;22.30;11.30
49861;DHT22;35761;48.826;9.238;2023-02-21T14:23:30;22.40;11.20
49861;DHT22;35761;48.826;9.238;2023-02-21T14:26:05;22.40;11.40
49861;DHT22;35761;48.826;9.238;2023-02-21T14:28:59;22.50;11.40
49861;DHT22;35761;48.826;9.238;2023-02-21T14:31:50;22.60;11.20
49861;DHT22;35761;48.826;9.238;2023-02-21T14:34:32;22.70;11.00
49861;DHT22;35761;48.826;9.238;2023-02-21T14:37:12;22.90;10.40
49861;DHT22;35761;48.826;9.238;2023-02-21T14:39:45;23.00;10.10
49861;DHT22;35761;48.826;9.238;2023-02-21T14:42:33;23.10;9.90
49861;DHT22;35761;48.826;9.238;2023-02-21T14:51:43;23.10;10.00
49861;DHT22;35761;48.826;9.238;2023-02-21T14:54:49;23.20;10.10
49861;DHT22;35761;48.826;9.238;2023-02-21T14:57:59;23.20;10.20
49861;DHT22;35761;48.826;9.238;2023-02-21T15:00:41;23.30;10.00
49861;DHT22;35761;48.826;9.238;2023-02-21T15:03:26;23.40;9.70
49861;DHT22;35761;48.826;9.238;2023-02-21T15:06:02;23.40;9.30
49861;DHT22;35761;48.826;9.238;2023-02-21T15:08:41;23.60;9.40
49861;DHT22;35761;48.826;9.238;2023-02-21T15:11:25;23.60;9.40
49861;DHT22;35761;48.826;9.238;2023-02-21T15:14:17;23.50;10.00
49861;DHT22;35761;48.826;9.238;2023-02-21T15:16:52;23.50;9.50
49861;DHT22;35761;48.826;9.238;2023-02-21T15:19:29;23.60;8.90
49861;DHT22;35761;48.826;9.238;2023-02-21T15:22:20;23.60;9.10
49861;DHT22;35761;48.826;9.238;2023-02-21T15:25:14;23.60;9.00
49861;DHT22;35761;48.826;9.238;2023-02-21T15:27:53;23.70;9.10
49861;DHT22;35761;48.826;9.238;2023-02-21T15:30:31;23.50;9.40
49861;DHT22;35761;48.826;9.238;2023-02-21T15:33:15;23.60;9.50
49861;DHT22;35761;48.826;9.238;2023-02-21T15:35:50;23.70;9.20
49861;DHT22;35761;48.826;9.238;2023-02-21T15:38:24;23.70;9.30
49861;DHT22;35761;48.826;9.238;2023-02-21T15:41:01;23.70;9.50
49861;DHT22;35761;48.826;9.238;2023-02-21T15:43:41;23.70;9.40
49861;DHT22;35761;48.826;9.238;2023-02-21T15:46:17;23.70;9.50
49861;DHT22;35761;48.826;9.238;2023-02-21T15:48:50;23.60;9.70
49861;DHT22;35761;48.826;9.238;2023-02-21T15:51:21;23.50;9.70
49861;DHT22;35761;48.826;9.238;2023-02-21T15:54:09;23.50;9.80
49861;DHT22;35761;48.826;9.238;2023-02-21T15:57:03;23.30;10.00
49861;DHT22;35761;48.826;9.238;2023-02-21T15:59:43;23.40;10.20
49861;DHT22;35761;48.826;9.238;2023-02-21T16:02:14;23.30;10.00
49861;DHT22;35761;48.826;9.238;2023-02-21T16:04:45;23.20;10.10
49861;DHT22;35761;48.826;9.238;2023-02-21T16:07:19;23.00;10.30
49861;DHT22;35761;48.826;9.238;2023-02-21T16:09:56;22.80;10.50
49861;DHT22;35761;48.826;9.238;2023-02-21T16:12:30;22.80;10.60
49861;DHT22;35761;48.826;9.238;2023-02-21T16:15:05;22.60;10.60
49861;DHT22;35761;48.826;9.238;2023-02-21T16:17:37;22.40;10.90
49861;DHT22;35761;48.826;9.238;2023-02-21T16:20:14;22.30;11.20
49861;DHT22;35761;48.826;9.238;2023-02-21T16:22:47;22.10;11.50
49861;DHT22;35761;48.826;9.238;2023-02-21T16:25:54;21.90;11.90
49861;DHT22;35761;48.826;9.238;2023-02-21T16:28:27;21.70;12.20
49861;DHT22;35761;48.826;9.238;2023-02-21T16:30:57;21.70;12.30
49861;DHT22;35761;48.826;9.238;2023-02-21T16:33:27;21.50;12.50
49861;DHT22;35761;48.826;9.238;2023-02-21T16:35:56;21.30;12.60
49861;DHT22;35761;48.826;9.238;2023-02-21T16:38:30;21.30;12.70
49861;DHT22;35761;48.826;9.238;2023-02-21T16:40:59;21.10;12.70
49861;DHT22;35761;48.826;9.238;2023-02-21T16:43:28;21.00;12.80
49861;DHT22;35761;48.826;9.238;2023-02-21T16:45:58;20.80;12.90
49861;DHT22;35761;48.826;9.238;2023-02-21T16:48:28;20.80;13.00
49861;DHT22;35761;48.826;9.238;2023-02-21T16:51:00;20.60;13.20
49861;DHT22;35761;48.826;9.238;2023-02-21T16:53:31;20.40;13.50